Time;durP1;ratioP1;P1;durP2;ratioP2;P2;SDS_P1;SDS_P2;PMS_P1;PMS_P2;Temp;Humidity;BMP_temperature;BMP_pressure;BME280_temperature;BME280_humidity;BME280_pressure;Samples;Min_cycle;Max_cycle;Signal;HPM_P1;HPM_P2
2021/07/28 00:02:07;;;;;;;7.13;3.92;;;17.20;99.90;;;;;;5053091;28;20542;-38
2021/07/28 00:04:40;;;;;;;4.30;3.72;;;17.10;99.90;;;;;;5053295;28;20488;-39
2021/07/28 00:07:07;;;;;;;6.63;4.30;;;17.10;99.90;;;;;;5052935;28;20033;-40
2021/07/28 00:09:33;;;;;;;4.82;3.65;;;17.10;99.90;;;;;;5053119;28;20302;-40
2021/07/28 00:11:58;;;;;;;4.07;3.60;;;17.00;99.90;;;;;;5051773;28;20055;-40
2021/07/28 00:14:24;;;;;;;3.95;3.38;;;17.00;99.90;;;;;;5052983;28;20032;-39
2021/07/28 00:16:49;;;;;;;4.28;3.58;;;17.00;99.90;;;;;;5053277;28;20032;-40
2021/07/28 00:19:27;;;;;;;4.82;3.83;;;16.90;99.90;;;;;;5053023;28;20230;-41
2021/07/28 00:24:37;;;;;;;4.47;3.88;;;16.90;99.90;;;;;;5052977;28;20071;-40
2021/07/28 00:27:04;;;;;;;5.43;4.18;;;16.90;99.90;;;;;;5051567;28;20029;-39
2021/07/28 00:29:30;;;;;;;5.38;4.40;;;16.90;99.90;;;;;;5052883;28;20172;-41
2021/07/28 00:31:56;;;;;;;5.15;4.63;;;16.90;99.90;;;;;;5052821;28;20083;-39
2021/07/28 00:34:21;;;;;;;7.55;4.45;;;16.90;99.90;;;;;;5052735;28;20029;-41
2021/07/28 00:36:48;;;;;;;5.00;4.32;;;16.90;99.90;;;;;;5052835;28;20510;-40
2021/07/28 00:39:13;;;;;;;4.88;3.92;;;16.90;99.90;;;;;;5052732;28;20384;-40
2021/07/28 00:41:43;;;;;;;6.15;4.10;;;17.00;99.90;;;;;;5051451;28;20033;-38
2021/07/28 00:44:08;;;;;;;4.93;4.40;;;17.00;99.90;;;;;;5052732;28;20055;-41
2021/07/28 00:46:34;;;;;;;5.38;3.70;;;17.00;99.90;;;;;;5052561;28;20025;-40
2021/07/28 00:48:59;;;;;;;5.85;4.43;;;17.00;99.90;;;;;;5052696;28;20021;-39
2021/07/28 00:51:25;;;;;;;5.32;4.15;;;17.00;99.90;;;;;;5052640;28;20534;-41
2021/07/28 00:53:51;;;;;;;6.28;4.35;;;17.10;99.90;;;;;;5052608;28;20017;-41
2021/07/28 00:56:20;;;;;;;3.92;3.53;;;17.10;99.90;;;;;;5051283;28;20033;-38
2021/07/28 00:58:46;;;;;;;4.82;4.32;;;17.10;99.90;;;;;;5052593;28;20108;-41
2021/07/28 01:01:11;;;;;;;5.03;3.80;;;17.10;99.90;;;;;;5052469;28;20052;-41
2021/07/28 01:03:38;;;;;;;5.63;3.80;;;17.10;99.90;;;;;;5052335;28;20503;-40
2021/07/28 01:06:04;;;;;;;4.00;3.35;;;17.00;99.90;;;;;;5052449;28;20047;-41
2021/07/28 01:08:30;;;;;;;6.07;4.18;;;17.00;99.90;;;;;;5052678;28;20511;-39
2021/07/28 01:10:59;;;;;;;5.93;4.05;;;16.90;99.90;;;;;;5051191;28;20028;-42
2021/07/28 01:13:30;;;;;;;6.47;4.38;;;16.90;99.90;;;;;;5052351;28;20029;-38
2021/07/28 01:16:06;;;;;;;6.13;4.00;;;16.80;99.90;;;;;;5052268;28;20029;-39
2021/07/28 01:18:33;;;;;;;4.32;3.63;;;16.70;99.90;;;;;;5052348;28;20033;-38
2021/07/28 01:20:59;;;;;;;8.63;3.90;;;16.70;99.90;;;;;;5052423;28;20121;-38
2021/07/28 01:23:26;;;;;;;4.18;3.78;;;16.60;99.90;;;;;;5051010;28;20032;-39
2021/07/28 01:25:53;;;;;;;5.53;4.15;;;16.50;99.90;;;;;;5050989;28;20123;-42
2021/07/28 01:28:24;;;;;;;6.90;4.63;;;16.40;99.90;;;;;;5056135;28;20021;-40
2021/07/28 01:31:17;;;;;;;8.57;5.55;;;16.40;99.90;;;;;;5056130;28;20379;-38
2021/07/28 01:33:45;;;;;;;6.63;4.22;;;16.30;99.90;;;;;;5054949;28;20077;-39
2021/07/28 01:36:18;;;;;;;6.57;4.40;;;16.30;99.90;;;;;;5055847;28;20033;-40
2021/07/28 01:38:45;;;;;;;4.60;4.07;;;16.20;99.90;;;;;;5055852;28;20170;-38
2021/07/28 01:41:11;;;;;;;4.50;3.88;;;16.10;99.90;;;;;;5054584;28;20021;-40
2021/07/28 01:43:40;;;;;;;4.95;4.45;;;16.10;99.90;;;;;;5055831;28;20033;-39
2021/07/28 01:46:06;;;;;;;4.30;3.72;;;16.10;99.90;;;;;;5055658;28;20025;-39
2021/07/28 01:48:32;;;;;;;5.93;4.78;;;16.00;99.90;;;;;;5055808;28;20361;-41
2021/07/28 01:50:58;;;;;;;5.13;4.50;;;16.00;99.90;;;;;;5055793;28;20025;-38
2021/07/28 01:53:24;;;;;;;5.03;4.53;;;16.00;99.90;;;;;;5055506;28;20031;-39
2021/07/28 01:55:52;;;;;;;5.28;4.57;;;15.90;99.90;;;;;;5054359;28;20033;-38
2021/07/28 01:58:18;;;;;;;5.15;4.65;;;15.90;99.90;;;;;;5055601;28;20107;-39
2021/07/28 02:00:44;;;;;;;6.30;5.38;;;15.80;99.90;;;;;;5055709;28;20040;-41
2021/07/28 02:03:10;;;;;;;4.97;4.10;;;15.80;99.90;;;;;;5055391;28;20049;-40
2021/07/28 02:05:37;;;;;;;9.07;4.38;;;15.70;99.90;;;;;;5055364;28;20051;-41
2021/07/28 02:08:05;;;;;;;4.82;4.10;;;15.60;99.90;;;;;;5055336;28;20048;-39
2021/07/28 02:10:34;;;;;;;7.63;4.65;;;15.60;99.90;;;;;;5053978;28;20025;-41
2021/07/28 02:13:03;;;;;;;5.82;4.78;;;15.60;99.90;;;;;;5055393;28;20024;-39
2021/07/28 02:15:29;;;;;;;5.07;4.22;;;15.50;99.90;;;;;;5055265;28;20029;-39
2021/07/28 02:17:55;;;;;;;6.47;5.45;;;15.50;99.90;;;;;;5055280;28;20025;-38
2021/07/28 02:20:23;;;;;;;5.30;4.65;;;15.40;99.90;;;;;;5055142;28;20041;-39
2021/07/28 02:22:49;;;;;;;6.18;5.00;;;15.40;99.90;;;;;;5055008;28;20052;-41
2021/07/28 02:25:16;;;;;;;7.07;5.22;;;15.40;99.90;;;;;;5053752;28;20029;-39
2021/07/28 02:27:42;;;;;;;5.65;4.38;;;15.40;99.90;;;;;;5055202;28;20429;-41
2021/07/28 02:30:09;;;;;;;8.93;6.47;;;15.40;99.90;;;;;;5055015;28;20029;-40
2021/07/28 02:32:35;;;;;;;5.65;5.00;;;15.40;99.90;;;;;;5054941;28;20518;-38
2021/07/28 02:35:01;;;;;;;6.03;4.95;;;15.30;99.90;;;;;;5054966;28;20024;-38
2021/07/28 02:37:27;;;;;;;5.95;4.53;;;15.30;99.90;;;;;;5053960;28;20029;-38
2021/07/28 02:39:53;;;;;;;7.10;5.35;;;15.30;99.90;;;;;;5053197;28;20084;-42
2021/07/28 02:42:18;;;;;;;4.90;4.40;;;15.30;99.90;;;;;;5054778;28;20388;-40
2021/07/28 02:44:44;;;;;;;6.50;5.72;;;15.40;99.90;;;;;;5054653;28;20025;-38
2021/07/28 02:47:10;;;;;;;9.77;5.53;;;15.40;99.90;;;;;;5053346;28;20053;-38
2021/07/28 02:49:36;;;;;;;6.65;5.72;;;15.50;99.90;;;;;;5054592;28;20076;-40
2021/07/28 02:52:02;;;;;;;6.75;5.95;;;15.50;99.90;;;;;;5054533;28;20441;-39
2021/07/28 02:54:27;;;;;;;6.43;5.03;;;15.60;99.90;;;;;;5054509;28;20052;-40
2021/07/28 02:56:53;;;;;;;6.15;5.05;;;15.70;99.90;;;;;;5053212;28;20029;-40
2021/07/28 02:59:19;;;;;;;5.28;4.78;;;15.70;99.90;;;;;;5054474;28;20507;-41
2021/07/28 03:01:44;;;;;;;8.25;6.10;;;15.80;99.90;;;;;;5054136;28;20072;-39
2021/07/28 03:04:10;;;;;;;6.63;5.93;;;15.80;99.90;;;;;;5054312;28;20169;-38
2021/07/28 03:06:35;;;;;;;5.10;4.47;;;15.90;99.90;;;;;;5053999;28;20036;-41
2021/07/28 03:09:01;;;;;;;6.70;4.55;;;15.90;99.90;;;;;;5054393;28;20048;-38
2021/07/28 03:11:27;;;;;;;6.45;5.45;;;16.00;99.90;;;;;;5052802;28;20017;-40
2021/07/28 03:13:52;;;;;;;7.03;5.78;;;16.00;99.90;;;;;;5054202;28;20476;-40
2021/07/28 03:16:18;;;;;;;7.03;5.65;;;16.10;99.90;;;;;;5054093;28;20373;-38
2021/07/28 03:18:43;;;;;;;5.28;4.78;;;16.00;99.90;;;;;;5054092;28;20060;-40
2021/07/28 03:21:09;;;;;;;5.75;5.07;;;16.00;99.90;;;;;;5053925;28;20047;-39
2021/07/28 03:23:35;;;;;;;8.23;4.40;;;16.00;99.90;;;;;;5054007;28;20032;-38
2021/07/28 03:26:00;;;;;;;5.07;4.57;;;16.00;99.90;;;;;;5052643;28;20492;-38
2021/07/28 03:28:26;;;;;;;7.95;5.22;;;16.10;99.90;;;;;;5053877;28;20090;-39
2021/07/28 03:30:51;;;;;;;6.60;4.72;;;16.10;99.90;;;;;;5053808;28;20029;-41
2021/07/28 03:33:18;;;;;;;6.15;5.50;;;16.20;99.90;;;;;;5053808;28;20071;-39
2021/07/28 03:35:44;;;;;;;8.10;5.68;;;16.30;99.90;;;;;;5053599;28;20035;-42
2021/07/28 03:38:11;;;;;;;5.18;4.68;;;16.30;99.90;;;;;;5053798;28;20035;-39
2021/07/28 03:40:37;;;;;;;7.10;5.65;;;16.40;99.90;;;;;;5052374;28;20025;-41
2021/07/28 03:43:03;;;;;;;5.55;4.75;;;16.40;99.90;;;;;;5053651;28;20049;-43
2021/07/28 03:45:28;;;;;;;5.28;4.78;;;16.50;99.90;;;;;;5053464;28;20094;-40
2021/07/28 03:47:54;;;;;;;6.38;5.15;;;16.50;99.90;;;;;;5053552;28;20524;-39
2021/07/28 03:50:19;;;;;;;6.65;4.90;;;16.50;99.90;;;;;;5053100;28;20021;-41
2021/07/28 03:52:45;;;;;;;5.30;4.78;;;16.60;99.90;;;;;;5053463;28;20276;-40
2021/07/28 03:55:11;;;;;;;5.53;4.28;;;16.60;99.90;;;;;;5052092;28;20035;-39
2021/07/28 03:57:37;;;;;;;5.35;4.57;;;16.70;99.90;;;;;;5053267;28;20530;-40
2021/07/28 04:00:03;;;;;;;7.63;5.38;;;16.70;99.90;;;;;;5053280;28;20025;-40
2021/07/28 04:02:29;;;;;;;6.85;5.72;;;16.80;99.90;;;;;;5053059;28;20049;-41
2021/07/28 04:04:55;;;;;;;6.55;5.78;;;16.80;99.90;;;;;;5053290;28;20402;-38
2021/07/28 04:07:20;;;;;;;9.27;6.72;;;16.80;99.90;;;;;;5053206;28;20039;-38
2021/07/28 04:09:46;;;;;;;7.20;6.00;;;16.90;99.90;;;;;;5051678;28;20362;-40
2021/07/28 04:12:11;;;;;;;6.30;5.35;;;17.00;99.90;;;;;;5053159;28;20021;-41
2021/07/28 04:14:37;;;;;;;8.40;5.97;;;17.10;99.90;;;;;;5052987;28;20031;-42
2021/07/28 04:17:02;;;;;;;6.20;5.18;;;17.20;99.90;;;;;;5053069;28;20025;-39
2021/07/28 04:19:28;;;;;;;10.57;6.93;;;17.20;99.90;;;;;;5052908;28;20035;-39
2021/07/28 04:21:53;;;;;;;5.97;5.35;;;17.30;99.90;;;;;;5052951;28;20383;-39
2021/07/28 04:24:19;;;;;;;7.57;6.38;;;17.50;99.90;;;;;;5052956;28;20035;-39
2021/07/28 04:26:44;;;;;;;6.53;5.78;;;17.70;99.90;;;;;;5051756;28;20029;-40
2021/07/28 04:29:10;;;;;;;6.07;5.45;;;17.70;99.90;;;;;;5052997;28;20018;-39
2021/07/28 04:31:35;;;;;;;6.43;4.60;;;17.80;99.90;;;;;;5052730;28;20032;-38
2021/07/28 04:34:01;;;;;;;6.35;4.95;;;17.80;99.90;;;;;;5052769;28;20116;-39
2021/07/28 04:36:26;;;;;;;5.75;5.15;;;17.80;99.90;;;;;;5052715;28;20032;-41
2021/07/28 04:38:52;;;;;;;6.28;4.95;;;17.90;99.90;;;;;;5052682;28;20025;-40
2021/07/28 04:41:17;;;;;;;6.03;5.05;;;17.90;99.90;;;;;;5051408;28;20380;-38
2021/07/28 04:43:43;;;;;;;8.32;5.75;;;18.00;99.90;;;;;;5052669;28;20032;-38
2021/07/28 04:46:08;;;;;;;5.53;4.90;;;18.00;99.90;;;;;;5052644;28;20033;-40
2021/07/28 04:48:33;;;;;;;5.75;4.82;;;18.10;99.90;;;;;;5052569;28;20464;-42
2021/07/28 04:50:59;;;;;;;6.20;5.28;;;18.20;99.90;;;;;;5052693;28;20059;-39
2021/07/28 04:53:30;;;;;;;6.82;6.07;;;18.20;99.90;;;;;;5052624;28;20044;-38
2021/07/28 04:55:58;;;;;;;10.00;5.70;;;18.30;99.90;;;;;;5051262;28;20029;-38
2021/07/28 04:58:24;;;;;;;6.80;4.75;;;18.30;99.90;;;;;;5052617;28;20032;-40
2021/07/28 05:00:50;;;;;;;7.93;5.55;;;18.40;99.90;;;;;;5052641;28;20481;-38
2021/07/28 05:03:16;;;;;;;7.97;5.05;;;18.50;99.90;;;;;;5056465;28;20140;-46
2021/07/28 05:05:42;;;;;;;5.97;5.35;;;18.50;99.90;;;;;;5056481;28;20108;-38
2021/07/28 05:08:08;;;;;;;4.75;4.22;;;18.60;99.90;;;;;;5056603;28;20047;-40
2021/07/28 05:10:34;;;;;;;5.45;4.90;;;18.60;99.90;;;;;;5055211;28;20391;-40
2021/07/28 05:13:00;;;;;;;6.82;5.10;;;18.60;99.90;;;;;;5056579;28;20025;-39
2021/07/28 05:15:26;;;;;;;7.57;5.30;;;18.60;99.90;;;;;;5056416;28;20029;-39
2021/07/28 05:17:51;;;;;;;6.72;5.70;;;18.60;99.90;;;;;;5055018;28;20079;-39
2021/07/28 05:20:17;;;;;;;5.65;5.05;;;18.60;99.90;;;;;;5056365;28;20067;-41
2021/07/28 05:22:44;;;;;;;6.07;4.50;;;18.60;99.90;;;;;;5056283;28;20040;-41
2021/07/28 05:25:10;;;;;;;5.85;4.13;;;18.60;99.90;;;;;;5054877;28;20021;-38
2021/07/28 05:27:35;;;;;;;5.82;4.05;;;18.70;99.90;;;;;;5056219;28;20048;-41
2021/07/28 05:30:02;;;;;;;4.57;4.10;;;18.70;99.90;;;;;;5056140;28;20025;-40
2021/07/28 05:32:28;;;;;;;5.75;4.75;;;18.70;99.90;;;;;;5056025;28;20024;-39
2021/07/28 05:34:53;;;;;;;6.90;4.90;;;18.70;99.90;;;;;;5056020;28;20033;-38
2021/07/28 05:37:19;;;;;;;4.75;4.25;;;18.70;99.90;;;;;;5056022;28;20404;-39
2021/07/28 05:39:45;;;;;;;8.32;5.15;;;18.80;99.90;;;;;;5054643;28;20033;-39
2021/07/28 05:42:11;;;;;;;9.45;5.95;;;18.80;99.90;;;;;;5055947;28;20041;-39
2021/07/28 05:44:36;;;;;;;6.72;5.60;;;18.80;99.90;;;;;;5055858;28;20215;-38
2021/07/28 05:47:02;;;;;;;5.75;5.05;;;18.80;99.90;;;;;;5055699;28;20399;-44
2021/07/28 05:49:28;;;;;;;6.65;5.25;;;18.90;99.90;;;;;;5055788;28;20048;-43
2021/07/28 05:51:54;;;;;;;6.43;5.47;;;18.90;99.90;;;;;;5055767;28;20028;-39
2021/07/28 05:54:19;;;;;;;7.28;5.20;;;19.00;99.90;;;;;;5055844;28;20029;-40
2021/07/28 05:56:45;;;;;;;6.88;5.82;;;19.00;99.90;;;;;;5054350;28;20480;-39
2021/07/28 05:59:10;;;;;;;6.10;4.55;;;19.10;99.90;;;;;;5055676;28;20060;-39
2021/07/28 06:01:36;;;;;;;5.55;4.78;;;19.10;99.90;;;;;;5055324;28;20468;-43
2021/07/28 06:04:01;;;;;;;5.43;4.40;;;19.20;99.90;;;;;;5055427;28;20072;-42
2021/07/28 06:06:27;;;;;;;5.13;4.63;;;19.20;99.90;;;;;;5055360;28;20029;-40
2021/07/28 06:08:54;;;;;;;9.00;4.85;;;19.30;99.90;;;;;;5055363;28;20025;-41
2021/07/28 06:11:19;;;;;;;5.40;4.53;;;19.40;99.90;;;;;;5054102;28;20025;-42
2021/07/28 06:13:44;;;;;;;6.90;4.90;;;19.40;99.90;;;;;;5055124;28;20139;-39
2021/07/28 06:16:10;;;;;;;4.97;4.30;;;19.40;99.90;;;;;;5054054;28;20033;-39
2021/07/28 06:18:35;;;;;;;8.55;5.70;;;19.40;99.90;;;;;;5055153;28;20036;-40
2021/07/28 06:21:01;;;;;;;4.97;4.47;;;19.40;99.90;;;;;;5055270;28;20039;-42
2021/07/28 06:23:27;;;;;;;9.13;5.70;;;19.40;99.90;;;;;;5055207;28;20028;-39
2021/07/28 06:25:53;;;;;;;9.43;5.22;;;19.30;99.90;;;;;;5053736;28;20411;-39
2021/07/28 06:28:18;;;;;;;7.55;5.90;;;19.30;99.90;;;;;;5055094;28;20032;-39
2021/07/28 06:30:44;;;;;;;10.02;5.55;;;19.30;99.90;;;;;;5055017;28;20496;-40
2021/07/28 06:33:09;;;;;;;6.72;4.57;;;19.30;99.90;;;;;;5054924;28;20025;-38
2021/07/28 06:35:35;;;;;;;7.20;5.13;;;19.30;99.90;;;;;;5054908;28;20025;-39
2021/07/28 06:38:02;;;;;;;9.43;6.13;;;19.30;99.90;;;;;;5054907;28;20100;-39
2021/07/28 06:40:28;;;;;;;6.65;4.82;;;19.30;99.90;;;;;;5053493;28;20488;-40
2021/07/28 06:42:53;;;;;;;5.80;4.90;;;19.30;99.90;;;;;;5054762;28;20048;-38
2021/07/28 06:45:19;;;;;;;5.78;4.88;;;19.30;99.90;;;;;;5054679;28;20029;-38
2021/07/28 06:47:44;;;;;;;6.72;4.60;;;19.30;99.90;;;;;;5054595;28;20025;-39
2021/07/28 06:50:10;;;;;;;4.15;3.72;;;19.30;99.90;;;;;;5054675;28;20171;-41
2021/07/28 06:52:36;;;;;;;6.97;4.45;;;19.30;99.90;;;;;;5054613;28;20021;-41
2021/07/28 06:55:02;;;;;;;4.43;3.95;;;19.40;99.90;;;;;;5053276;28;20411;-38
2021/07/28 06:57:28;;;;;;;5.03;4.15;;;19.60;99.90;;;;;;5054621;28;20079;-39
2021/07/28 06:59:53;;;;;;;5.20;4.57;;;19.70;99.90;;;;;;5054409;28;20480;-40
2021/07/28 07:02:19;;;;;;;5.93;4.13;;;19.90;99.90;;;;;;5054211;28;20068;-39
2021/07/28 07:04:44;;;;;;;4.80;3.53;;;20.20;99.90;;;;;;5054424;28;20479;-41
2021/07/28 07:07:10;;;;;;;4.80;4.15;;;20.30;99.90;;;;;;5054270;28;20106;-39
2021/07/28 07:09:35;;;;;;;4.90;4.20;;;20.40;99.90;;;;;;5053414;28;20021;-40
2021/07/28 07:12:00;;;;;;;7.32;4.45;;;20.50;99.90;;;;;;5053915;28;20082;-42
2021/07/28 07:14:26;;;;;;;5.15;4.45;;;20.50;99.90;;;;;;5054184;28;20035;-39
2021/07/28 07:16:54;;;;;;;6.40;4.75;;;20.70;99.90;;;;;;5054050;28;20029;-42
2021/07/28 07:19:19;;;;;;;6.40;4.95;;;20.90;99.90;;;;;;5054161;28;20049;-41
2021/07/28 07:21:45;;;;;;;4.47;3.70;;;21.10;99.90;;;;;;5054053;28;20404;-41
2021/07/28 07:24:10;;;;;;;5.90;4.47;;;21.40;99.90;;;;;;5052102;28;20025;-39
2021/07/28 07:26:35;;;;;;;5.45;4.10;;;21.60;99.90;;;;;;5052589;28;20065;-40
2021/07/28 07:29:01;;;;;;;4.93;4.43;;;21.70;99.90;;;;;;5053901;28;20412;-41
2021/07/28 07:31:26;;;;;;;5.30;4.60;;;21.70;99.90;;;;;;5053726;28;20060;-39
2021/07/28 07:33:52;;;;;;;4.25;3.42;;;21.60;99.90;;;;;;5053776;28;20025;-39
2021/07/28 07:36:18;;;;;;;4.70;3.92;;;21.60;99.90;;;;;;5053748;28;20523;-38
2021/07/28 07:38:44;;;;;;;4.70;3.72;;;21.80;99.90;;;;;;5053651;28;20020;-41
2021/07/28 07:41:09;;;;;;;6.38;4.72;;;21.90;99.90;;;;;;5052388;28;20452;-39
2021/07/28 07:43:35;;;;;;;4.97;3.63;;;22.10;99.90;;;;;;5053728;28;20028;-39
2021/07/28 07:46:01;;;;;;;5.63;3.63;;;22.20;99.90;;;;;;5053339;28;20032;-42
2021/07/28 07:48:27;;;;;;;5.60;3.75;;;22.30;99.90;;;;;;5053637;28;20031;-45
2021/07/28 07:50:53;;;;;;;5.47;4.32;;;22.30;99.90;;;;;;5053577;28;20044;-39
2021/07/28 07:53:19;;;;;;;4.15;3.75;;;22.30;99.90;;;;;;5053495;28;20049;-42
2021/07/28 07:55:44;;;;;;;4.45;3.95;;;22.50;99.90;;;;;;5052242;28;20495;-39
2021/07/28 07:58:10;;;;;;;4.18;3.78;;;22.60;99.90;;;;;;5053415;28;20047;-38
2021/07/28 08:00:36;;;;;;;4.93;4.15;;;22.80;99.90;;;;;;5053236;28;20052;-41
2021/07/28 08:03:01;;;;;;;5.13;4.55;;;23.20;99.90;;;;;;5053114;28;20056;-40
2021/07/28 08:05:27;;;;;;;7.68;4.20;;;23.50;99.90;;;;;;5053213;28;20040;-39
2021/07/28 08:07:52;;;;;;;4.25;3.60;;;23.90;99.90;;;;;;5053198;28;20032;-41
2021/07/28 08:10:18;;;;;;;3.90;3.50;;;24.50;99.90;;;;;;5051938;28;20057;-39
2021/07/28 08:12:43;;;;;;;5.55;3.75;;;25.70;99.90;;;;;;5053243;28;20419;-39
2021/07/28 08:15:09;;;;;;;6.38;4.07;;;27.50;99.90;;;;;;5052999;28;20055;-42
2021/07/28 08:17:35;;;;;;;5.35;4.15;;;28.50;99.90;;;;;;5053149;28;20061;-39
2021/07/28 08:20:01;;;;;;;10.60;4.30;;;29.10;99.00;;;;;;5053018;28;20033;-41
2021/07/28 08:22:28;;;;;;;5.38;3.90;;;29.20;97.30;;;;;;5053053;28;20025;-41
2021/07/28 08:24:53;;;;;;;4.80;4.03;;;29.10;95.20;;;;;;5051683;28;20271;-39
2021/07/28 08:27:20;;;;;;;6.57;3.97;;;28.90;93.50;;;;;;5052855;28;20037;-40
2021/07/28 08:29:45;;;;;;;6.35;3.80;;;28.80;93.30;;;;;;5052894;28;20475;-44
2021/07/28 08:32:11;;;;;;;4.85;3.72;;;29.20;90.90;;;;;;5052814;28;20025;-40
2021/07/28 08:34:36;;;;;;;4.88;3.70;;;30.10;87.20;;;;;;5052871;28;20027;-40
2021/07/28 08:37:02;;;;;;;5.10;3.35;;;31.00;81.40;;;;;;5050614;28;20021;-41
2021/07/28 08:39:28;;;;;;;3.55;3.20;;;31.60;77.00;;;;;;5052830;28;20100;-40
2021/07/28 08:41:59;;;;;;;4.18;3.78;;;33.40;68.60;;;;;;5051715;28;20067;-41
2021/07/28 08:44:26;;;;;;;4.45;3.58;;;34.90;61.80;;;;;;5052684;28;20017;-43
2021/07/28 08:46:53;;;;;;;5.95;3.78;;;35.50;58.20;;;;;;5052632;28;20025;-42
2021/07/28 08:49:20;;;;;;;3.58;3.28;;;35.80;54.80;;;;;;5052724;28;20100;-42
2021/07/28 08:51:46;;;;;;;3.60;3.30;;;36.70;53.20;;;;;;5052691;28;20025;-42
2021/07/28 08:54:12;;;;;;;5.18;3.50;;;37.30;48.40;;;;;;5052635;28;20052;-43
2021/07/28 08:56:42;;;;;;;4.10;3.20;;;38.00;46.50;;;;;;5051395;28;20492;-40
2021/07/28 08:59:30;;;;;;;3.25;2.95;;;37.80;40.70;;;;;;5052490;28;20380;-40
2021/07/28 09:01:57;;;;;;;4.75;3.00;;;36.60;37.10;;;;;;5052413;28;20041;-41
2021/07/28 09:04:25;;;;;;;3.30;3.00;;;35.60;41.50;;;;;;5052448;28;20033;-40
2021/07/28 09:06:50;;;;;;;5.57;3.42;;;35.00;44.60;;;;;;5052462;28;20481;-40
2021/07/28 09:09:16;;;;;;;4.95;3.33;;;34.60;44.10;;;;;;5052463;28;20108;-41
2021/07/28 09:11:59;;;;;;;3.45;3.15;;;34.40;42.90;;;;;;5051151;28;20119;-41
2021/07/28 09:14:28;;;;;;;3.70;3.40;;;34.80;36.70;;;;;;5052476;28;20048;-42
2021/07/28 09:17:10;;;;;;;3.45;3.15;;;35.10;40.20;;;;;;5052512;28;20042;-39
2021/07/28 09:19:41;;;;;;;3.40;3.10;;;35.10;40.00;;;;;;5052468;28;20070;-40
2021/07/28 09:22:07;;;;;;;3.90;3.38;;;34.50;39.30;;;;;;5052273;28;20471;-42
2021/07/28 09:24:33;;;;;;;3.53;2.95;;;33.90;39.80;;;;;;5051148;28;20021;-41
2021/07/28 09:26:58;;;;;;;6.13;3.95;;;33.50;40.50;;;;;;5052279;28;20431;-41
2021/07/28 09:29:28;;;;;;;3.72;3.08;;;33.00;37.30;;;;;;5052309;28;20146;-40
2021/07/28 09:31:57;;;;;;;3.70;3.30;;;32.80;38.10;;;;;;5052421;28;20103;-40
2021/07/28 09:34:23;;;;;;;5.63;3.47;;;32.80;38.00;;;;;;5052188;28;20476;-40
2021/07/28 09:36:55;;;;;;;4.63;3.20;;;33.20;37.50;;;;;;5052284;28;20446;-40
2021/07/28 09:39:32;;;;;;;3.65;3.35;;;33.80;36.20;;;;;;5052229;28;20031;-40
2021/07/28 09:42:10;;;;;;;5.60;3.72;;;34.20;34.00;;;;;;5052249;28;20021;-44
2021/07/28 09:44:35;;;;;;;4.53;3.60;;;33.10;35.50;;;;;;5052183;28;20048;-42
2021/07/28 09:47:04;;;;;;;3.38;3.08;;;32.40;37.40;;;;;;5051155;28;20021;-39
2021/07/28 09:49:29;;;;;;;6.80;3.75;;;32.40;37.70;;;;;;5055884;28;20029;-43
2021/07/28 09:51:55;;;;;;;4.32;3.75;;;32.70;37.90;;;;;;5055883;28;20060;-40
2021/07/28 09:54:25;;;;;;;3.50;3.20;;;33.40;37.10;;;;;;5055736;28;20440;-40
2021/07/28 09:56:53;;;;;;;4.28;3.70;;;34.20;36.00;;;;;;5054689;28;20037;-44
2021/07/28 09:59:21;;;;;;;4.25;3.85;;;34.60;35.00;;;;;;5055631;28;20048;-39
2021/07/28 10:01:48;;;;;;;5.57;3.47;;;34.50;34.50;;;;;;5055460;28;20060;-40
2021/07/28 10:04:15;;;;;;;5.20;3.95;;;33.90;35.00;;;;;;5055667;28;20052;-40
2021/07/28 10:06:46;;;;;;;4.35;3.55;;;33.50;35.70;;;;;;5055516;28;20039;-40
2021/07/28 10:09:25;;;;;;;4.22;3.78;;;33.00;36.40;;;;;;5055423;28;20578;-40
2021/07/28 10:11:52;;;;;;;3.78;3.40;;;32.50;36.10;;;;;;5054547;28;20108;-41
2021/07/28 10:14:19;;;;;;;4.47;3.35;;;32.30;37.10;;;;;;5055246;28;20021;-41
2021/07/28 10:16:45;;;;;;;4.82;3.58;;;32.00;37.60;;;;;;5055356;28;20047;-41
2021/07/28 10:19:11;;;;;;;5.05;3.60;;;31.90;37.80;;;;;;5055366;28;20032;-41
2021/07/28 10:21:38;;;;;;;4.70;3.30;;;31.60;38.30;;;;;;5055409;28;20037;-45
2021/07/28 10:24:05;;;;;;;3.60;3.30;;;31.20;38.80;;;;;;5055170;28;20392;-40
2021/07/28 10:26:37;;;;;;;3.67;3.38;;;30.90;39.80;;;;;;5053850;28;20520;-40
2021/07/28 10:29:03;;;;;;;3.72;3.42;;;30.50;40.30;;;;;;5055093;28;20025;-41
2021/07/28 10:31:53;;;;;;;5.90;3.42;;;30.30;41.10;;;;;;5055099;28;20017;-41
2021/07/28 10:34:26;;;;;;;4.20;3.65;;;30.00;42.00;;;;;;5054970;28;20427;-39
2021/07/28 10:36:55;;;;;;;4.80;3.50;;;30.00;42.50;;;;;;5055039;28;20032;-40
2021/07/28 10:39:44;;;;;;;3.55;3.25;;;30.00;42.70;;;;;;5054795;28;20104;-42
2021/07/28 10:42:14;;;;;;;3.90;3.60;;;30.00;44.10;;;;;;5054890;28;20021;-39
2021/07/28 10:45:09;;;;;;;4.93;4.43;;;30.00;43.80;;;;;;5054896;28;20554;-42
2021/07/28 10:47:45;;;;;;;4.28;3.58;;;30.00;44.70;;;;;;5054631;28;20021;-42
2021/07/28 10:50:25;;;;;;;5.70;4.10;;;30.10;45.30;;;;;;5054691;28;20049;-42
2021/07/28 10:52:55;;;;;;;4.47;3.35;;;30.20;43.90;;;;;;5054716;28;20021;-40
2021/07/28 10:55:37;;;;;;;3.72;3.42;;;30.00;44.00;;;;;;5053361;28;20475;-42
2021/07/28 10:58:09;;;;;;;3.92;3.47;;;29.80;44.80;;;;;;5054357;28;20500;-40
2021/07/28 11:03:06;;;;;;;3.70;3.40;;;30.00;44.10;;;;;;5054499;28;20045;-41
2021/07/28 11:05:36;;;;;;;3.58;3.15;;;30.00;44.00;;;;;;5054330;28;20032;-41
2021/07/28 11:08:02;;;;;;;3.63;3.33;;;30.10;43.60;;;;;;5054390;28;20079;-41
2021/07/28 11:10:37;;;;;;;3.35;2.97;;;30.30;43.40;;;;;;5052910;28;20564;-40
2021/07/28 11:13:07;;;;;;;3.08;2.70;;;30.20;42.80;;;;;;5054329;28;20024;-45
2021/07/28 11:15:34;;;;;;;5.10;3.30;;;30.20;43.00;;;;;;5054236;28;20484;-42
2021/07/28 11:17:59;;;;;;;3.50;3.20;;;30.20;43.10;;;;;;5054211;28;20033;-41
2021/07/28 11:20:29;;;;;;;3.83;3.53;;;30.10;42.60;;;;;;5054409;28;20021;-40
2021/07/28 11:23:37;;;;;;;4.32;2.90;;;30.00;42.40;;;;;;5052756;28;20078;-41
2021/07/28 11:26:11;;;;;;;3.42;2.90;;;29.90;41.70;;;;;;5049544;28;20040;-39
2021/07/28 11:28:36;;;;;;;4.07;3.10;;;29.70;42.50;;;;;;5053984;28;20025;-39
2021/07/28 11:31:07;;;;;;;3.30;2.55;;;29.60;42.20;;;;;;5053943;28;20035;-43
2021/07/28 11:33:34;;;;;;;3.13;2.50;;;29.70;42.40;;;;;;5053830;28;20023;-40
2021/07/28 11:36:00;;;;;;;3.38;3.08;;;29.70;42.40;;;;;;5052760;28;20029;-39
2021/07/28 11:38:34;;;;;;;3.95;2.78;;;29.80;42.50;;;;;;5053787;28;20060;-39
2021/07/28 11:41:01;;;;;;;2.78;2.45;;;29.80;41.90;;;;;;5052512;28;20028;-42
2021/07/28 11:43:30;;;;;;;3.20;2.80;;;29.80;42.10;;;;;;5053678;28;20057;-41
2021/07/28 11:45:57;;;;;;;3.35;2.72;;;29.80;41.80;;;;;;5052156;28;20025;-39
2021/07/28 11:48:38;;;;;;;4.35;2.58;;;29.80;41.00;;;;;;5052227;28;20021;-40
2021/07/28 11:51:05;;;;;;;4.47;3.00;;;29.80;40.80;;;;;;5053651;28;20025;-42
2021/07/28 11:53:32;;;;;;;2.88;2.55;;;29.80;40.40;;;;;;5053547;28;20021;-44
2021/07/28 11:56:12;;;;;;;4.60;2.50;;;29.60;40.70;;;;;;5052121;28;20056;-41
2021/07/28 11:58:42;;;;;;;4.47;3.42;;;29.40;39.30;;;;;;5053602;28;20032;-39
2021/07/28 12:01:20;;;;;;;5.90;3.00;;;29.20;39.00;;;;;;5053380;28;20033;-42
2021/07/28 12:04:03;;;;;;;3.40;2.70;;;29.10;39.90;;;;;;5053140;28;20045;-43
2021/07/28 12:06:34;;;;;;;10.02;3.50;;;28.90;39.50;;;;;;5053171;28;20468;-41
2021/07/28 12:09:20;;;;;;;3.03;2.60;;;28.70;40.90;;;;;;5053227;28;20104;-40
2021/07/28 12:11:48;;;;;;;2.92;2.50;;;28.90;41.90;;;;;;5051760;28;20013;-44
2021/07/28 12:14:38;;;;;;;3.22;2.42;;;29.10;41.00;;;;;;5053225;28;20021;-42
2021/07/28 12:17:05;;;;;;;3.38;2.20;;;29.20;40.40;;;;;;5053202;28;20095;-42
2021/07/28 12:19:37;;;;;;;3.38;2.80;;;29.30;40.60;;;;;;5052993;28;20108;-45
2021/07/28 12:22:11;;;;;;;3.10;2.63;;;29.40;40.10;;;;;;5053167;28;20209;-40
2021/07/28 12:24:42;;;;;;;2.40;2.20;;;29.50;38.20;;;;;;5051661;28;20029;-41
2021/07/28 12:27:26;;;;;;;2.45;2.05;;;29.60;38.00;;;;;;5052999;28;20035;-39
2021/07/28 12:30:17;;;;;;;2.50;2.30;;;29.60;36.70;;;;;;5052844;28;20056;-39
2021/07/28 12:32:45;;;;;;;4.80;2.47;;;29.70;37.10;;;;;;5052948;28;20385;-44
2021/07/28 12:35:19;;;;;;;2.55;2.03;;;29.60;36.00;;;;;;5052954;28;20036;-41
2021/07/28 12:37:45;;;;;;;3.75;2.47;;;29.50;35.70;;;;;;5052903;28;20017;-42
2021/07/28 12:40:12;;;;;;;2.67;2.42;;;29.40;36.60;;;;;;5051546;28;20411;-39
2021/07/28 12:42:38;;;;;;;5.15;1.83;;;29.30;36.20;;;;;;5052790;28;20107;-43
2021/07/28 12:45:10;;;;;;;2.83;2.30;;;29.30;36.30;;;;;;5052829;28;20055;-39
2021/07/28 12:47:36;;;;;;;2.42;2.22;;;29.30;35.50;;;;;;5052665;28;20025;-42
2021/07/28 12:50:02;;;;;;;3.30;1.90;;;29.30;36.30;;;;;;5052762;28;20063;-39
2021/07/28 12:52:27;;;;;;;2.50;2.30;;;29.40;36.20;;;;;;5052659;28;20511;-39
2021/07/28 12:54:53;;;;;;;2.85;2.28;;;29.40;36.20;;;;;;5051418;28;20031;-43